createdAt,value
2022-11-09T00:02:24.092Z,100303.84
2022-11-09T00:07:25.573Z,100307.03
2022-11-09T00:12:27.066Z,100317.69
2022-11-09T00:17:28.559Z,100311.84
2022-11-09T00:22:30.037Z,100306.38
2022-11-09T00:27:31.486Z,100299.22
2022-11-09T00:32:33.036Z,100300.72
2022-11-09T00:37:34.533Z,100292.50
2022-11-09T00:42:36.020Z,100284.13
2022-11-09T00:47:37.753Z,100281.56
2022-11-09T00:52:39.209Z,100282.88
2022-11-09T00:57:40.681Z,100286.66
2022-11-09T01:02:42.144Z,100283.47
2022-11-09T01:07:43.596Z,100281.78
2022-11-09T01:12:45.048Z,100280.81
2022-11-09T01:17:47.681Z,100276.97
2022-11-09T01:22:49.170Z,100257.28
2022-11-09T01:27:50.640Z,100269.91
2022-11-09T01:32:52.091Z,100286.13
2022-11-09T01:37:53.569Z,100271.13
2022-11-09T01:42:55.042Z,100276.22
2022-11-09T01:48:06.506Z,100268.00
2022-11-09T01:53:13.166Z,100273.78
2022-11-09T01:58:20.658Z,100279.25
2022-11-09T02:03:25.353Z,100282.63
2022-11-09T02:08:27.196Z,100295.25
2022-11-09T02:13:30.424Z,100279.91
2022-11-09T02:18:33.838Z,100278.38
2022-11-09T02:23:35.597Z,100287.13
2022-11-09T02:28:39.250Z,100284.41
2022-11-09T02:34:02.796Z,100276.22
2022-11-09T02:39:05.193Z,100283.75
2022-11-09T02:44:06.735Z,100277.44
2022-11-09T02:49:08.186Z,100269.06
2022-11-09T02:54:09.691Z,100263.59
2022-11-09T02:59:11.161Z,100254.16
2022-11-09T03:04:12.643Z,100240.22
2022-11-09T03:09:14.099Z,100250.97
2022-11-09T03:14:15.696Z,100244.00
2022-11-09T03:19:17.198Z,100252.56
2022-11-09T03:24:18.657Z,100266.59
2022-11-09T03:29:20.124Z,100269.34
2022-11-09T03:34:21.595Z,100296.88
2022-11-09T03:39:23.720Z,100306.56
2022-11-09T03:44:25.215Z,100318.66
2022-11-09T03:49:26.707Z,100334.00
2022-11-09T03:54:28.179Z,100328.72
2022-11-09T03:59:29.665Z,100328.81
2022-11-09T04:04:31.156Z,100333.22
2022-11-09T04:09:32.628Z,100340.50
2022-11-09T04:14:34.118Z,100328.88
2022-11-09T04:19:35.693Z,100330.97
2022-11-09T04:24:37.151Z,100332.19
2022-11-09T04:29:38.603Z,100336.78
2022-11-09T04:34:41.300Z,100346.88
2022-11-09T04:39:42.755Z,100344.63
2022-11-09T04:44:44.307Z,100349.91
2022-11-09T04:49:45.858Z,100340.50
2022-11-09T04:54:47.305Z,100363.50
2022-11-09T04:59:48.778Z,100365.66
2022-11-09T05:04:50.242Z,100359.44
2022-11-09T05:09:51.690Z,100365.41
2022-11-09T05:14:53.204Z,100356.06
2022-11-09T05:19:56.021Z,100356.97
2022-11-09T05:24:57.634Z,100371.75
2022-11-09T05:29:59.106Z,100365.91
2022-11-09T05:35:00.567Z,100364.88
2022-11-09T05:40:02.087Z,100372.09
2022-11-09T05:45:28.054Z,100368.41
2022-11-09T05:50:25.285Z,100384.31
2022-11-09T05:55:27.486Z,100380.25
2022-11-09T06:00:29.017Z,100379.59
2022-11-09T06:05:31.911Z,100378.75
2022-11-09T06:10:34.000Z,100387.97
2022-11-09T06:15:35.647Z,100394.63
2022-11-09T06:20:37.121Z,100389.53
2022-11-09T06:25:38.604Z,100390.22
2022-11-09T06:30:40.065Z,100388.53
2022-11-09T06:35:41.758Z,100393.50
2022-11-09T06:40:43.257Z,100403.56
2022-11-09T06:45:44.697Z,100406.94
2022-11-09T06:50:46.369Z,100406.44
2022-11-09T06:55:50.906Z,100426.44
2022-11-09T07:00:52.750Z,100425.41
2022-11-09T07:05:54.239Z,100426.25
2022-11-09T07:10:55.720Z,100432.56
2022-11-09T07:15:57.162Z,100434.44
2022-11-09T07:20:58.725Z,100435.94
2022-11-09T07:26:00.235Z,100446.50
2022-11-09T07:31:01.763Z,100438.13
2022-11-09T07:36:05.204Z,100450.94
2022-11-09T07:41:06.743Z,100456.72
2022-11-09T07:46:08.236Z,100456.34
2022-11-09T07:51:09.859Z,100457.31
2022-11-09T07:56:11.339Z,100455.91
2022-11-09T08:01:12.881Z,100467.84
2022-11-09T08:06:18.208Z,100454.47
2022-11-09T08:11:20.125Z,100466.56
2022-11-09T08:16:23.275Z,100471.41
2022-11-09T08:21:24.756Z,100475.75
2022-11-09T08:26:26.206Z,100487.59
2022-11-09T08:31:27.751Z,100493.34
2022-11-09T08:36:29.837Z,100495.13
2022-11-09T08:41:31.605Z,100490.09
2022-11-09T08:46:38.400Z,100489.81
2022-11-09T08:51:42.737Z,100490.88
2022-11-09T08:56:46.348Z,100483.25
2022-11-09T09:01:47.872Z,100493.63
2022-11-09T09:06:49.384Z,100493.50
2022-11-09T09:11:51.182Z,100491.34
2022-11-09T09:16:52.782Z,100494.94
2022-11-09T09:21:54.268Z,100501.59
2022-11-09T09:26:55.777Z,100504.59
2022-11-09T09:31:57.232Z,100511.97
2022-11-09T09:36:58.712Z,100513.00
2022-11-09T09:42:04.838Z,100518.53
2022-11-09T09:47:11.986Z,100523.25
2022-11-09T09:52:24.301Z,100529.13
2022-11-09T09:57:28.236Z,100534.44
2022-11-09T10:02:34.230Z,100539.19
2022-11-09T10:07:48.323Z,100533.34
2022-11-09T10:13:16.509Z,100551.81
2022-11-09T10:18:34.432Z,100543.31
2022-11-09T10:24:12.929Z,100551.81
2022-11-09T10:29:46.054Z,100549.72
2022-11-09T10:35:04.988Z,100549.78
2022-11-09T10:40:09.421Z,100548.09
2022-11-09T10:45:28.999Z,100546.06
2022-11-09T10:50:53.929Z,100544.88
2022-11-09T10:56:11.203Z,100540.31
2022-11-09T11:01:19.044Z,100541.00
2022-11-09T11:06:23.344Z,100534.69
2022-11-09T11:11:36.643Z,100538.44
2022-11-09T11:16:39.585Z,100533.25
2022-11-09T11:21:41.045Z,100530.88
2022-11-09T11:26:52.190Z,100520.75
2022-11-09T11:31:53.647Z,100519.16
2022-11-09T11:37:00.854Z,100540.16
2022-11-09T11:42:26.913Z,100537.97
2022-11-09T11:48:00.371Z,100537.03
2022-11-09T11:53:17.046Z,100523.63
2022-11-09T11:58:33.528Z,100540.31
2022-11-09T12:04:14.768Z,100544.25
2022-11-09T12:09:42.628Z,100542.03
2022-11-09T12:15:24.120Z,100538.00
2022-11-09T12:20:25.589Z,100543.22
2022-11-09T12:25:44.401Z,100548.41
2022-11-09T12:30:59.941Z,100549.19
2022-11-09T12:36:13.529Z,100551.88
2022-11-09T12:41:22.218Z,100546.44
2022-11-09T12:46:29.669Z,100568.09
2022-11-09T12:51:33.067Z,100556.03
2022-11-09T12:56:48.918Z,100572.31
2022-11-09T13:01:56.109Z,100575.34
2022-11-09T13:07:03.823Z,100583.47
2022-11-09T13:12:39.418Z,100587.75
2022-11-09T13:17:59.629Z,100584.03
2022-11-09T13:23:02.424Z,100617.28
2022-11-09T13:28:04.011Z,100640.44
2022-11-09T13:33:05.506Z,100634.34
2022-11-09T13:38:20.006Z,100633.97
2022-11-09T13:43:28.905Z,100607.63
2022-11-09T13:48:35.314Z,100624.75
2022-11-09T13:53:36.798Z,100658.38
2022-11-09T13:58:41.606Z,100669.16
2022-11-09T14:03:51.631Z,100666.06
2022-11-09T14:08:53.246Z,100669.66
2022-11-09T14:14:12.719Z,100682.66
2022-11-09T14:19:32.806Z,100688.78
2022-11-09T14:24:38.023Z,100673.78
2022-11-09T14:29:48.398Z,100674.44
2022-11-09T14:34:50.236Z,100685.16
2022-11-09T14:39:53.125Z,100694.00
2022-11-09T14:44:55.218Z,100708.16
2022-11-09T14:49:57.823Z,100720.75
2022-11-09T14:55:00.867Z,100725.91
2022-11-09T15:00:03.243Z,100732.56
2022-11-09T15:05:06.987Z,100742.81
2022-11-09T15:10:19.523Z,100762.31
2022-11-09T15:15:24.897Z,100765.69
2022-11-09T15:20:30.995Z,100767.25
2022-11-09T15:25:41.215Z,100774.41
2022-11-09T15:30:47.665Z,100776.44
2022-11-09T15:35:52.207Z,100782.41
2022-11-09T15:40:53.798Z,100775.44
2022-11-09T15:45:56.682Z,100767.06
2022-11-09T15:50:58.451Z,100786.84
2022-11-09T15:56:01.193Z,100785.47
2022-11-09T16:01:02.958Z,100809.72
2022-11-09T16:06:04.664Z,100819.81
2022-11-09T16:11:07.838Z,100824.41
2022-11-09T16:16:11.656Z,100844.03
2022-11-09T16:21:17.157Z,100849.84
2022-11-09T16:26:20.419Z,100862.81
2022-11-09T16:31:41.074Z,100869.97
2022-11-09T16:36:48.957Z,100874.75
2022-11-09T16:41:54.190Z,100877.59
2022-11-09T16:46:56.175Z,100889.22
2022-11-09T16:51:57.705Z,100897.72
2022-11-09T16:56:59.772Z,100906.09
2022-11-09T17:02:02.903Z,100914.28
2022-11-09T17:07:04.579Z,100918.22
2022-11-09T17:12:06.072Z,100936.47
2022-11-09T17:17:07.591Z,100936.63
2022-11-09T17:22:09.040Z,100942.22
2022-11-09T17:27:11.699Z,100950.75
2022-11-09T17:32:13.235Z,100949.75
2022-11-09T17:37:14.691Z,100969.88
2022-11-09T17:42:16.170Z,100975.50
2022-11-09T17:47:17.643Z,100985.75
2022-11-09T17:52:19.103Z,100992.06
2022-11-09T17:57:20.550Z,100995.94
2022-11-09T18:02:22.013Z,101009.41
2022-11-09T18:07:24.337Z,101010.78
2022-11-09T18:12:25.786Z,101040.47
2022-11-09T18:17:27.230Z,101042.72
2022-11-09T18:22:28.694Z,101060.22
2022-11-09T18:27:30.730Z,101077.69
2022-11-09T18:32:32.434Z,101074.97
2022-11-09T18:37:37.644Z,101078.72
2022-11-09T18:42:39.117Z,101072.72
2022-11-09T18:47:40.562Z,101083.25
2022-11-09T18:52:42.055Z,101096.84
2022-11-09T18:57:43.547Z,101093.03
2022-11-09T19:02:45.019Z,101101.09
2022-11-09T19:07:46.493Z,101104.19
2022-11-09T19:12:47.975Z,101114.63
2022-11-09T19:17:49.938Z,101125.91
2022-11-09T19:22:51.394Z,101122.81
2022-11-09T19:27:52.844Z,101127.59
2022-11-09T19:32:54.301Z,101148.88
2022-11-09T19:37:55.754Z,101150.47
2022-11-09T19:42:57.208Z,101161.38
2022-11-09T19:47:58.816Z,101168.84
2022-11-09T19:53:00.289Z,101176.66
2022-11-09T19:58:01.791Z,101187.91
2022-11-09T20:03:04.071Z,101203.56
2022-11-09T20:08:05.671Z,101211.38
2022-11-09T20:13:07.141Z,101212.00
2022-11-09T20:18:08.607Z,101228.53
2022-11-09T20:23:10.093Z,101221.97
2022-11-09T20:28:11.633Z,101230.41
2022-11-09T20:33:13.098Z,101229.41
2022-11-09T20:38:14.538Z,101237.56
2022-11-09T20:43:16.036Z,101252.47
2022-11-09T20:48:38.707Z,101261.19
2022-11-09T20:53:39.437Z,101263.19
2022-11-09T20:58:41.573Z,101271.84
2022-11-09T21:03:43.388Z,101284.34
2022-11-09T21:08:52.594Z,101283.31
2022-11-09T21:13:54.825Z,101285.56
2022-11-09T21:18:56.344Z,101284.22
2022-11-09T21:24:16.335Z,101293.66
2022-11-09T21:29:39.170Z,101306.66
2022-11-09T21:34:40.666Z,101312.00
2022-11-09T21:39:43.259Z,101313.91
2022-11-09T21:44:44.743Z,101317.34
2022-11-09T21:49:46.248Z,101330.81
2022-11-09T21:54:47.778Z,101346.31
2022-11-09T21:59:49.221Z,101350.78
2022-11-09T22:04:50.662Z,101351.50
2022-11-09T22:10:16.729Z,101347.97
2022-11-09T22:15:33.286Z,101361.84
2022-11-09T22:20:54.506Z,101378.91
2022-11-09T22:25:56.063Z,101372.72
2022-11-09T22:31:01.125Z,101379.19
2022-11-09T22:36:05.726Z,101392.13
2022-11-09T22:41:09.961Z,101397.56
2022-11-09T22:46:14.467Z,101396.56
2022-11-09T22:51:17.738Z,101404.88
2022-11-09T22:56:19.200Z,101405.19
2022-11-09T23:01:21.295Z,101414.50
2022-11-09T23:06:23.807Z,101412.09
2022-11-09T23:11:25.444Z,101422.25
2022-11-09T23:16:26.971Z,101432.88
2022-11-09T23:21:30.034Z,101436.44
2022-11-09T23:26:32.841Z,101449.38
2022-11-09T23:31:34.317Z,101451.09
2022-11-09T23:36:35.764Z,101453.81
2022-11-09T23:41:37.270Z,101444.91
2022-11-09T23:46:38.744Z,101451.09
2022-11-09T23:51:40.197Z,101447.78
2022-11-09T23:56:41.727Z,101463.13
